Time;durP1;ratioP1;P1;durP2;ratioP2;P2;SDS_P1;SDS_P2;PMS_P1;PMS_P2;Temp;Humidity;BMP_temperature;BMP_pressure;BME280_temperature;BME280_humidity;BME280_pressure;Samples;Min_cycle;Max_cycle;Signal;HPM_P1;HPM_P2
2023/10/16 17:37:48;;;;;;;4.40;2.40;;;15.20;99.90;;;;;;1803777;78;21192;-86
2023/10/16 17:40:56;;;;;;;6.12;2.30;;;15.10;99.90;;;;;;1803745;79;21211;-85
2023/10/16 17:43:47;;;;;;;8.05;2.65;;;15.10;99.90;;;;;;1787330;79;21666;-86
2023/10/16 17:46:40;;;;;;;5.05;2.85;;;15.00;99.90;;;;;;1788722;80;21147;-86
2023/10/16 17:49:32;;;;;;;6.60;3.25;;;15.00;99.90;;;;;;1788995;80;21155;-86
2023/10/16 17:52:25;;;;;;;5.37;3.00;;;14.90;99.90;;;;;;1788836;80;21236;-86
2023/10/16 17:55:18;;;;;;;7.45;4.17;;;14.90;99.90;;;;;;1778858;80;21089;-86
2023/10/16 17:58:10;;;;;;;6.95;4.25;;;14.80;99.90;;;;;;1789089;80;21156;-85
2023/10/16 18:01:03;;;;;;;3.95;2.42;;;14.80;99.90;;;;;;1788975;80;21128;-87
2023/10/16 18:03:55;;;;;;;5.30;2.50;;;14.80;99.90;;;;;;1789053;80;21235;-85
2023/10/16 18:06:49;;;;;;;5.42;2.87;;;14.80;99.90;;;;;;1788765;80;21174;-86
2023/10/16 18:09:40;;;;;;;6.42;2.80;;;14.80;99.90;;;;;;1788694;80;21116;-85
2023/10/16 18:12:33;;;;;;;4.85;2.40;;;14.80;99.90;;;;;;1788865;80;21139;-85
2023/10/16 18:15:25;;;;;;;4.45;2.42;;;14.80;99.90;;;;;;1788869;80;21135;-86
2023/10/16 18:18:17;;;;;;;3.50;2.52;;;14.70;99.90;;;;;;1788814;80;21093;-86
2023/10/16 18:21:09;;;;;;;4.05;2.08;;;14.70;99.90;;;;;;1781156;80;21129;-85
2023/10/16 18:24:03;;;;;;;6.17;2.50;;;14.60;99.90;;;;;;1780923;80;21144;-87
2023/10/16 18:26:55;;;;;;;3.98;2.30;;;14.60;99.90;;;;;;1781261;80;21120;-87
2023/10/16 18:29:46;;;;;;;3.02;1.90;;;14.60;99.90;;;;;;1781288;80;21077;-86
2023/10/16 18:32:39;;;;;;;6.15;2.60;;;14.60;99.90;;;;;;1781168;80;21206;-87
2023/10/16 18:35:31;;;;;;;4.80;2.47;;;14.60;99.90;;;;;;1781201;80;21077;-85
2023/10/16 18:38:23;;;;;;;7.47;3.00;;;14.60;99.90;;;;;;1781154;79;21357;-86
2023/10/16 18:41:16;;;;;;;5.28;2.80;;;14.50;99.90;;;;;;1781302;80;21124;-86
2023/10/16 18:44:08;;;;;;;7.05;3.05;;;14.50;99.90;;;;;;1781656;80;21233;-85
2023/10/16 18:47:00;;;;;;;5.33;2.60;;;14.40;99.90;;;;;;1781547;80;21202;-86
2023/10/16 18:49:52;;;;;;;7.22;2.90;;;14.30;99.90;;;;;;1781517;80;21147;-85
2023/10/16 18:52:46;;;;;;;6.97;3.15;;;14.20;99.90;;;;;;1781490;80;21553;-86
2023/10/16 18:55:38;;;;;;;8.63;3.65;;;14.20;99.90;;;;;;1781332;80;21168;-85
2023/10/16 18:58:29;;;;;;;6.35;3.30;;;14.20;99.90;;;;;;1781384;80;21129;-86
2023/10/16 19:01:22;;;;;;;6.17;3.40;;;14.20;99.90;;;;;;1781305;80;21089;-85
2023/10/16 19:04:14;;;;;;;5.55;2.35;;;14.10;99.90;;;;;;1781535;80;21232;-86
2023/10/16 19:07:06;;;;;;;4.00;2.45;;;14.20;99.90;;;;;;1781562;80;21109;-84
2023/10/16 19:09:58;;;;;;;6.00;2.12;;;14.20;99.90;;;;;;1781466;80;21198;-85
2023/10/16 19:12:50;;;;;;;4.22;2.17;;;14.20;99.90;;;;;;1781361;80;21136;-86
2023/10/16 19:15:42;;;;;;;6.20;2.55;;;14.10;99.90;;;;;;1781486;80;21085;-86
2023/10/16 19:18:37;;;;;;;5.05;2.25;;;14.00;99.90;;;;;;1781634;80;21161;-86
2023/10/16 19:21:28;;;;;;;4.10;2.30;;;14.00;99.90;;;;;;1781485;80;21156;-85
2023/10/16 19:24:20;;;;;;;7.08;2.42;;;13.90;99.90;;;;;;1781458;80;21128;-85
2023/10/16 19:27:12;;;;;;;4.53;2.45;;;13.90;99.90;;;;;;1781619;80;21156;-86
2023/10/16 19:30:08;;;;;;;6.95;2.55;;;13.80;99.90;;;;;;1781477;80;21128;-86
2023/10/16 19:32:59;;;;;;;3.65;2.60;;;13.80;99.90;;;;;;1781397;80;21493;-87
2023/10/16 19:35:51;;;;;;;4.62;2.50;;;13.80;99.90;;;;;;1781414;80;21124;-86
2023/10/16 19:38:44;;;;;;;4.47;2.37;;;13.70;99.90;;;;;;1781238;80;21081;-86
2023/10/16 19:41:36;;;;;;;6.10;3.35;;;13.70;99.90;;;;;;1781047;79;21634;-86
2023/10/16 19:44:29;;;;;;;10.50;5.87;;;13.70;99.90;;;;;;1791939;80;21194;-86
2023/10/16 19:47:24;;;;;;;6.28;3.00;;;13.70;99.90;;;;;;1781171;80;21640;-85
2023/10/16 19:50:17;;;;;;;4.87;2.52;;;13.60;99.90;;;;;;1791941;80;21148;-85
2023/10/16 19:53:10;;;;;;;5.15;2.80;;;13.50;99.90;;;;;;1792017;80;21243;-85
2023/10/16 19:56:02;;;;;;;5.05;2.95;;;13.60;99.90;;;;;;1792025;80;21153;-85
2023/10/16 19:58:53;;;;;;;6.03;2.70;;;13.50;99.90;;;;;;1791908;80;21518;-85
2023/10/16 20:01:45;;;;;;;6.10;2.55;;;13.50;99.90;;;;;;1781064;80;21124;-86
2023/10/16 20:04:36;;;;;;;4.33;2.62;;;13.40;99.90;;;;;;1781218;80;21120;-86
2023/10/16 20:07:28;;;;;;;6.65;2.85;;;13.40;99.90;;;;;;1781161;80;21092;-86
2023/10/16 20:10:20;;;;;;;3.80;2.20;;;13.30;99.90;;;;;;1791901;80;21227;-86
2023/10/16 20:13:12;;;;;;;5.70;2.30;;;13.30;99.90;;;;;;1791995;80;21129;-86
2023/10/16 20:16:04;;;;;;;4.70;2.00;;;13.30;99.90;;;;;;1781132;80;21210;-86
2023/10/16 20:18:56;;;;;;;4.58;2.45;;;13.30;99.90;;;;;;1791723;80;21148;-86
2023/10/16 20:21:51;;;;;;;4.25;2.52;;;13.30;99.90;;;;;;1781073;80;21144;-86
2023/10/16 20:24:46;;;;;;;3.87;2.40;;;13.20;99.90;;;;;;1780933;80;21236;-85
2023/10/16 20:27:37;;;;;;;4.85;2.77;;;13.20;99.90;;;;;;1781213;80;21161;-85
2023/10/16 20:30:29;;;;;;;4.10;2.58;;;13.20;99.90;;;;;;1791999;80;21158;-85
2023/10/16 20:33:21;;;;;;;6.22;2.47;;;13.20;99.90;;;;;;1791890;80;21186;-85
2023/10/16 20:36:12;;;;;;;5.25;2.37;;;13.10;99.90;;;;;;1792002;80;21112;-86
2023/10/16 20:39:07;;;;;;;4.30;2.25;;;13.10;99.90;;;;;;1792098;80;21120;-86
2023/10/16 20:41:57;;;;;;;5.85;2.60;;;13.00;99.90;;;;;;1781427;79;21552;-87
2023/10/16 20:44:49;;;;;;;6.45;2.92;;;13.00;99.90;;;;;;1781490;80;21131;-86
2023/10/16 20:47:41;;;;;;;4.15;2.37;;;13.00;99.90;;;;;;1781677;80;21128;-87
2023/10/16 20:50:36;;;;;;;5.00;2.80;;;13.00;99.90;;;;;;1781619;80;21189;-87
2023/10/16 20:53:27;;;;;;;4.35;2.42;;;12.90;99.90;;;;;;1781552;80;21085;-86
2023/10/16 20:56:19;;;;;;;4.92;2.25;;;12.90;99.90;;;;;;1781685;80;21113;-85
2023/10/16 20:59:15;;;;;;;4.80;2.47;;;12.80;99.90;;;;;;1781598;80;21206;-86
2023/10/16 21:02:07;;;;;;;3.17;2.22;;;12.80;99.90;;;;;;1781637;80;21575;-86
2023/10/16 21:05:03;;;;;;;6.15;2.62;;;12.80;99.90;;;;;;1781529;80;21113;-86
2023/10/16 21:07:58;;;;;;;5.65;2.42;;;12.70;99.90;;;;;;1781413;80;21112;-86
2023/10/16 21:10:54;;;;;;;3.70;2.00;;;12.60;99.90;;;;;;1781612;80;21190;-86
2023/10/16 21:13:48;;;;;;;4.40;2.37;;;12.60;99.90;;;;;;1781379;80;21123;-86
2023/10/16 21:16:40;;;;;;;4.85;2.90;;;12.60;99.90;;;;;;1781525;80;21124;-86
2023/10/16 21:19:33;;;;;;;6.97;2.67;;;12.50;99.90;;;;;;1781515;80;21662;-86
2023/10/16 21:22:26;;;;;;;4.20;2.83;;;12.60;99.90;;;;;;1781374;80;21120;-86
2023/10/16 21:25:20;;;;;;;5.05;2.25;;;12.50;99.90;;;;;;1781577;80;21198;-85
2023/10/16 21:28:15;;;;;;;4.65;2.60;;;12.50;99.90;;;;;;1781465;80;21073;-86
2023/10/16 21:31:09;;;;;;;6.03;2.77;;;12.40;99.90;;;;;;1781783;80;21124;-86
2023/10/16 21:34:06;;;;;;;5.10;2.17;;;12.40;99.90;;;;;;1781659;80;21577;-86
2023/10/16 21:37:00;;;;;;;3.77;2.30;;;12.30;99.90;;;;;;1744149;80;21084;-86
2023/10/16 21:39:54;;;;;;;4.92;2.80;;;12.30;99.90;;;;;;1781541;80;21123;-86
2023/10/16 21:42:47;;;;;;;3.70;2.20;;;12.30;99.90;;;;;;1781401;79;21147;-86
2023/10/16 21:45:41;;;;;;;4.22;2.08;;;12.30;99.90;;;;;;1781219;80;21116;-85
2023/10/16 21:48:38;;;;;;;4.40;2.35;;;12.30;99.90;;;;;;1792028;80;21154;-85
2023/10/16 21:51:29;;;;;;;4.53;1.95;;;12.40;99.90;;;;;;1786094;80;21084;-85
2023/10/16 21:54:24;;;;;;;4.33;1.80;;;12.30;99.90;;;;;;1783106;80;21196;-85
2023/10/16 21:57:20;;;;;;;3.98;1.80;;;12.30;99.90;;;;;;1783770;80;21544;-85
2023/10/16 22:00:31;;;;;;;2.85;1.87;;;12.20;99.90;;;;;;1783701;80;21124;-85
2023/10/16 22:03:23;;;;;;;2.80;2.02;;;12.30;99.90;;;;;;1783536;80;21169;-85
2023/10/16 22:06:17;;;;;;;4.37;2.30;;;12.20;99.90;;;;;;1714383;84;21250;-85
2023/10/16 22:09:10;;;;;;;2.83;2.17;;;12.20;99.90;;;;;;1783694;80;21193;-86
2023/10/16 22:12:04;;;;;;;4.92;2.10;;;12.20;99.90;;;;;;1783847;80;21127;-86
2023/10/16 22:14:56;;;;;;;3.00;2.02;;;12.20;99.90;;;;;;1783849;80;21673;-86
2023/10/16 22:17:52;;;;;;;4.45;2.22;;;12.10;99.90;;;;;;1783837;80;21147;-86
2023/10/16 22:20:45;;;;;;;3.72;2.12;;;12.10;99.90;;;;;;1783903;80;21134;-86
2023/10/16 22:23:41;;;;;;;3.22;2.00;;;12.00;99.90;;;;;;1783604;80;21095;-86
2023/10/16 22:26:38;;;;;;;2.80;1.62;;;12.00;99.90;;;;;;1783723;80;21182;-86
2023/10/16 22:29:31;;;;;;;2.22;1.75;;;11.90;99.90;;;;;;1783848;80;21135;-86
2023/10/16 22:32:25;;;;;;;4.03;1.47;;;12.00;99.90;;;;;;1783588;80;21154;-86
2023/10/16 22:35:18;;;;;;;6.87;2.02;;;12.00;99.90;;;;;;1783529;80;21095;-86
2023/10/16 22:38:12;;;;;;;2.47;1.57;;;12.00;99.90;;;;;;1783636;80;21127;-85
2023/10/16 22:41:06;;;;;;;3.25;1.95;;;12.00;99.90;;;;;;1783733;80;21581;-86
2023/10/16 22:43:59;;;;;;;3.95;1.90;;;12.00;99.90;;;;;;1815671;77;21138;-86
2023/10/16 22:46:53;;;;;;;4.45;1.90;;;11.90;99.90;;;;;;1831112;78;21125;-86
2023/10/16 22:49:47;;;;;;;2.70;1.77;;;11.80;99.90;;;;;;1831215;78;21125;-86
2023/10/16 22:52:44;;;;;;;2.60;1.60;;;11.80;99.90;;;;;;1831078;78;21224;-85
2023/10/16 22:55:41;;;;;;;2.92;2.33;;;11.80;99.90;;;;;;1831202;78;21070;-86
2023/10/16 22:58:38;;;;;;;3.20;1.65;;;11.70;99.90;;;;;;1831029;78;21106;-87
2023/10/16 23:01:32;;;;;;;3.65;2.08;;;11.70;99.90;;;;;;1831263;78;21151;-86
2023/10/16 23:04:25;;;;;;;4.22;2.10;;;11.70;99.90;;;;;;1831173;78;21188;-85
2023/10/16 23:07:25;;;;;;;3.52;2.08;;;11.70;99.90;;;;;;1831013;78;21212;-85
2023/10/16 23:10:20;;;;;;;2.90;2.00;;;11.70;99.90;;;;;;1830547;78;21557;-87
2023/10/16 23:13:13;;;;;;;3.00;1.70;;;11.70;99.90;;;;;;1830784;78;21070;-86
2023/10/16 23:16:11;;;;;;;3.22;1.55;;;11.70;99.90;;;;;;1855967;77;21128;-86
2023/10/16 23:21:44;;;;;;;4.95;1.92;;;11.60;99.90;;;;;;1957726;72;22095;-87
2023/10/16 23:24:37;;;;;;;4.28;1.70;;;11.60;99.90;;;;;;1905022;75;21107;-86
2023/10/16 23:27:28;;;;;;;2.62;1.65;;;11.50;99.90;;;;;;1904826;75;21270;-86
2023/10/16 23:30:24;;;;;;;6.17;2.22;;;11.50;99.90;;;;;;1904854;75;21098;-86
2023/10/16 23:33:21;;;;;;;1.98;1.45;;;11.50;99.90;;;;;;1904638;75;21103;-86
2023/10/16 23:36:25;;;;;;;3.83;1.70;;;11.50;99.90;;;;;;1905007;75;21106;-86
2023/10/16 23:39:15;;;;;;;2.75;1.57;;;11.50;99.90;;;;;;1904998;75;21132;-85
2023/10/16 23:42:16;;;;;;;2.10;1.65;;;11.50;99.90;;;;;;1904947;75;21088;-85
2023/10/16 23:45:07;;;;;;;3.85;1.60;;;11.40;99.90;;;;;;1904739;75;21163;-85
2023/10/16 23:48:00;;;;;;;2.10;1.45;;;11.40;99.90;;;;;;1904895;75;21048;-85
2023/10/16 23:50:56;;;;;;;3.70;1.80;;;11.50;99.90;;;;;;1904723;75;21632;-85
2023/10/16 23:53:48;;;;;;;2.45;1.75;;;11.50;99.90;;;;;;1904668;75;21250;-86
2023/10/16 23:56:40;;;;;;;2.00;1.80;;;11.40;99.90;;;;;;1904687;75;21160;-86
2023/10/16 23:59:33;;;;;;;3.27;1.70;;;11.40;99.90;;;;;;1904995;75;21511;-85
